Time;durP1;ratioP1;P1;durP2;ratioP2;P2;SDS_P1;SDS_P2;PMS_P1;PMS_P2;Temp;Humidity;BMP_temperature;BMP_pressure;BME280_temperature;BME280_humidity;BME280_pressure;Samples;Min_cycle;Max_cycle;Signal;HPM_P1;HPM_P2
2022/05/29 00:02:09;;;;;;;3.58;2.50;;;13.80;91.60;;;;;;5007705;28;20297;-68
2022/05/29 00:04:37;;;;;;;2.88;2.50;;;13.70;90.70;;;;;;5012241;28;20276;-68
2022/05/29 00:07:04;;;;;;;4.20;2.60;;;14.10;91.00;;;;;;5012410;28;20699;-68
2022/05/29 00:09:38;;;;;;;3.10;2.28;;;14.10;90.50;;;;;;5012326;28;20229;-68
2022/05/29 00:12:04;;;;;;;4.28;2.15;;;14.20;89.40;;;;;;5027500;28;20604;-68
2022/05/29 00:14:31;;;;;;;4.25;2.20;;;14.30;88.00;;;;;;5012748;28;20182;-68
2022/05/29 00:16:57;;;;;;;2.35;2.17;;;14.10;87.20;;;;;;5011638;28;20190;-68
2022/05/29 00:19:23;;;;;;;3.47;2.15;;;14.30;86.90;;;;;;5011024;28;20202;-68
2022/05/29 00:21:50;;;;;;;2.33;2.13;;;14.30;87.10;;;;;;5011350;28;20209;-68
2022/05/29 00:24:16;;;;;;;4.10;2.65;;;14.10;87.00;;;;;;5012486;28;20250;-68
2022/05/29 00:26:42;;;;;;;3.90;2.37;;;14.50;87.00;;;;;;5012147;28;20183;-68
2022/05/29 00:29:08;;;;;;;2.60;2.38;;;14.50;86.30;;;;;;5011775;28;20218;-68
2022/05/29 00:31:34;;;;;;;2.35;1.92;;;14.70;86.20;;;;;;5008233;28;20257;-68
2022/05/29 00:34:00;;;;;;;2.45;2.05;;;14.40;85.60;;;;;;5012278;28;20262;-68
2022/05/29 00:36:33;;;;;;;3.35;2.10;;;14.50;85.80;;;;;;5011301;28;20720;-68
2022/05/29 00:38:58;;;;;;;2.75;2.45;;;14.60;85.60;;;;;;5008632;28;20292;-68
2022/05/29 00:41:32;;;;;;;3.13;2.93;;;14.90;85.20;;;;;;5010216;28;20190;-68
2022/05/29 00:44:09;;;;;;;3.38;2.42;;;14.50;84.50;;;;;;5010431;28;20194;-68
2022/05/29 00:46:36;;;;;;;2.55;2.03;;;14.60;84.60;;;;;;5010272;28;20199;-68
2022/05/29 00:49:06;;;;;;;2.78;2.22;;;14.70;84.70;;;;;;5012368;28;20273;-68
2022/05/29 00:51:38;;;;;;;2.25;2.00;;;14.70;84.70;;;;;;5011399;28;20218;-68
2022/05/29 00:54:05;;;;;;;2.70;2.28;;;14.60;84.30;;;;;;5003675;28;20187;-68
2022/05/29 00:56:37;;;;;;;2.80;2.35;;;14.50;84.00;;;;;;5011314;28;20199;-68
2022/05/29 00:59:05;;;;;;;4.28;2.75;;;14.60;84.20;;;;;;5003488;28;20203;-68
2022/05/29 01:01:31;;;;;;;3.53;2.20;;;14.90;85.20;;;;;;5010188;28;20183;-68
2022/05/29 01:03:57;;;;;;;4.10;2.60;;;14.60;84.90;;;;;;5011046;28;20209;-68
2022/05/29 01:06:23;;;;;;;3.30;2.80;;;14.60;84.80;;;;;;5010773;28;20187;-68
2022/05/29 01:08:50;;;;;;;3.10;2.33;;;14.50;84.30;;;;;;5010757;28;20746;-68
2022/05/29 01:11:23;;;;;;;5.40;2.58;;;14.30;83.10;;;;;;5010821;28;20528;-68
2022/05/29 01:14:01;;;;;;;2.58;2.38;;;14.40;83.00;;;;;;5010661;28;20191;-68
2022/05/29 01:16:48;;;;;;;3.08;2.55;;;14.70;83.70;;;;;;5009211;28;20228;-68
2022/05/29 01:19:27;;;;;;;4.15;2.70;;;14.60;83.00;;;;;;5016960;28;20569;-68
2022/05/29 01:22:23;;;;;;;6.18;3.90;;;14.60;83.50;;;;;;5021892;28;20186;-68
2022/05/29 01:25:09;;;;;;;3.45;3.15;;;14.70;83.40;;;;;;5009338;28;20190;-68
2022/05/29 01:27:53;;;;;;;2.22;2.10;;;14.90;83.60;;;;;;5010061;28;20266;-68
2022/05/29 01:30:24;;;;;;;4.10;2.08;;;14.70;83.20;;;;;;5004194;28;20590;-68
2022/05/29 01:33:09;;;;;;;3.88;3.00;;;14.50;83.00;;;;;;5011488;28;20236;-68
2022/05/29 01:35:59;;;;;;;2.17;1.95;;;14.50;83.20;;;;;;5010174;28;20191;-68
2022/05/29 01:38:58;;;;;;;7.13;5.40;;;14.70;83.70;;;;;;5006597;28;20222;-68
2022/05/29 01:41:39;;;;;;;3.55;2.55;;;14.30;83.90;;;;;;5011905;28;20683;-68
2022/05/29 01:44:16;;;;;;;2.72;2.53;;;14.30;84.30;;;;;;5006591;28;20178;-68
2022/05/29 01:46:45;;;;;;;3.97;2.40;;;14.20;84.40;;;;;;5009708;28;20209;-68
2022/05/29 01:49:27;;;;;;;2.80;2.50;;;14.50;84.90;;;;;;5010404;28;20214;-68
2022/05/29 01:51:59;;;;;;;2.20;2.00;;;14.30;85.00;;;;;;5010226;28;20187;-68
2022/05/29 01:54:38;;;;;;;2.45;2.25;;;14.20;84.60;;;;;;5004955;28;20203;-68
2022/05/29 01:57:14;;;;;;;6.97;2.25;;;14.20;83.20;;;;;;5004773;28;20198;-68
2022/05/29 02:00:05;;;;;;;2.53;2.33;;;14.30;83.40;;;;;;5006890;28;20214;-68
2022/05/29 02:02:35;;;;;;;2.30;2.10;;;14.30;82.60;;;;;;5025900;28;20236;-68
2022/05/29 02:05:06;;;;;;;4.10;2.17;;;14.10;83.00;;;;;;5009451;28;20184;-68
2022/05/29 02:07:49;;;;;;;2.45;2.25;;;14.40;83.90;;;;;;5010774;28;20690;-68
2022/05/29 02:10:38;;;;;;;3.50;2.20;;;13.90;82.50;;;;;;5007912;28;20257;-66
2022/05/29 02:13:25;;;;;;;4.50;2.15;;;13.80;83.20;;;;;;5006116;28;20183;-69
2022/05/29 02:16:07;;;;;;;5.00;2.45;;;13.70;83.10;;;;;;5008473;28;20183;-68
2022/05/29 02:18:46;;;;;;;2.58;2.13;;;13.80;82.90;;;;;;5015407;28;20256;-69
2022/05/29 02:21:22;;;;;;;3.17;2.25;;;14.10;83.70;;;;;;5007691;28;20528;-68
2022/05/29 02:23:53;;;;;;;2.60;2.15;;;13.80;82.10;;;;;;5009075;28;20178;-68
2022/05/29 02:26:23;;;;;;;3.17;2.30;;;13.80;82.90;;;;;;5009411;28;20182;-68
2022/05/29 02:28:59;;;;;;;4.70;2.60;;;14.00;84.90;;;;;;5010726;28;20745;-68
2022/05/29 02:31:44;;;;;;;1.70;1.60;;;13.90;84.00;;;;;;5009867;28;20179;-68
2022/05/29 02:34:32;;;;;;;2.95;2.50;;;13.70;84.10;;;;;;5008091;28;20189;-68
2022/05/29 02:37:16;;;;;;;4.65;2.70;;;13.80;85.00;;;;;;5017901;28;20664;-68
2022/05/29 02:39:48;;;;;;;2.58;2.25;;;13.70;84.00;;;;;;5005859;28;20337;-68
2022/05/29 02:42:27;;;;;;;4.88;2.40;;;13.70;84.70;;;;;;5010720;28;20742;-68
2022/05/29 02:45:20;;;;;;;2.78;2.40;;;13.70;84.00;;;;;;5008971;28;20190;-68
2022/05/29 02:48:23;;;;;;;2.85;2.40;;;13.60;85.60;;;;;;5008240;28;20193;-68
2022/05/29 02:51:01;;;;;;;4.18;2.30;;;13.70;86.70;;;;;;5008178;28;20265;-69
2022/05/29 02:53:27;;;;;;;2.25;2.05;;;13.70;86.90;;;;;;5009924;28;20183;-68
2022/05/29 02:55:53;;;;;;;2.37;2.03;;;13.70;87.20;;;;;;5009263;28;20190;-69
2022/05/29 02:58:26;;;;;;;2.30;2.10;;;13.60;87.50;;;;;;5017308;28;20206;-68
2022/05/29 03:00:55;;;;;;;3.20;2.58;;;13.40;87.90;;;;;;5008211;28;20282;-68
2022/05/29 03:03:55;;;;;;;3.08;2.00;;;13.50;90.60;;;;;;5024519;28;20209;-68
2022/05/29 03:06:26;;;;;;;3.67;2.50;;;13.40;90.60;;;;;;5007269;28;20236;-68
2022/05/29 03:09:04;;;;;;;2.47;2.20;;;13.40;89.60;;;;;;5009160;28;20211;-68
2022/05/29 03:11:42;;;;;;;3.45;2.60;;;13.30;89.40;;;;;;5008612;28;20195;-68
2022/05/29 03:14:34;;;;;;;2.75;2.25;;;13.30;89.30;;;;;;5003210;28;20191;-68
2022/05/29 03:17:11;;;;;;;2.45;2.10;;;13.40;89.30;;;;;;5011323;28;20183;-68
2022/05/29 03:20:05;;;;;;;3.45;2.60;;;13.20;89.00;;;;;;5009019;28;20602;-68
2022/05/29 03:22:46;;;;;;;2.85;2.20;;;13.60;89.30;;;;;;5009355;28;20195;-68
2022/05/29 03:25:30;;;;;;;2.78;2.22;;;13.30;88.90;;;;;;5006087;28;20186;-68
2022/05/29 03:27:58;;;;;;;4.57;3.03;;;13.30;88.80;;;;;;5009112;28;20199;-68
2022/05/29 03:30:29;;;;;;;3.05;2.00;;;13.30;88.90;;;;;;5008822;28;20214;-68
2022/05/29 03:32:58;;;;;;;2.97;2.40;;;13.10;88.50;;;;;;5010285;28;20273;-68
2022/05/29 03:35:29;;;;;;;5.18;2.50;;;13.10;88.80;;;;;;5009154;28;20194;-68
2022/05/29 03:37:56;;;;;;;3.35;2.25;;;13.40;88.90;;;;;;5011590;28;20236;-68
2022/05/29 03:40:24;;;;;;;2.50;2.30;;;13.20;89.20;;;;;;5009925;28;20194;-68
2022/05/29 03:42:49;;;;;;;2.85;2.35;;;13.20;88.70;;;;;;5010608;28;20219;-68
2022/05/29 03:45:15;;;;;;;3.70;2.73;;;13.10;88.40;;;;;;5011916;28;20218;-68
2022/05/29 03:47:41;;;;;;;2.30;2.10;;;13.20;88.50;;;;;;5008261;28;20559;-68
2022/05/29 03:50:10;;;;;;;4.00;2.60;;;13.00;89.10;;;;;;5010373;28;20246;-68
2022/05/29 03:52:36;;;;;;;2.53;2.10;;;13.20;89.00;;;;;;5010658;28;20179;-68
2022/05/29 03:55:03;;;;;;;2.70;2.20;;;12.90;87.80;;;;;;5011681;28;20194;-68
2022/05/29 03:57:28;;;;;;;5.57;1.92;;;13.30;88.30;;;;;;5011255;28;20198;-68
2022/05/29 03:59:54;;;;;;;4.90;2.77;;;13.00;88.20;;;;;;5010795;28;20214;-68
2022/05/29 04:02:20;;;;;;;2.93;1.93;;;13.10;88.80;;;;;;5011415;28;20621;-68
2022/05/29 04:04:45;;;;;;;2.53;2.33;;;13.00;89.80;;;;;;5014761;28;20225;-68
2022/05/29 04:07:11;;;;;;;2.60;2.30;;;13.40;89.40;;;;;;5012600;28;20194;-68
2022/05/29 04:12:21;;;;;;;3.10;2.90;;;13.00;88.40;;;;;;5009134;28;20659;-56
2022/05/29 04:14:47;;;;;;;3.40;2.70;;;13.40;89.90;;;;;;5011413;28;20182;-56
2022/05/29 04:17:16;;;;;;;4.47;2.90;;;13.20;89.80;;;;;;5010725;28;20183;-56
2022/05/29 04:19:42;;;;;;;2.40;2.20;;;13.30;90.30;;;;;;5011471;28;20221;-56
2022/05/29 04:22:17;;;;;;;2.67;2.47;;;13.40;90.70;;;;;;5013228;28;20269;-56
2022/05/29 04:24:43;;;;;;;4.25;2.80;;;13.30;91.70;;;;;;5006984;28;20208;-55
2022/05/29 04:27:12;;;;;;;3.45;2.90;;;13.20;91.80;;;;;;5010128;28;20666;-55
2022/05/29 04:29:38;;;;;;;3.45;3.15;;;13.20;92.50;;;;;;5011074;28;20273;-56
2022/05/29 04:34:53;;;;;;;3.60;2.30;;;13.10;93.90;;;;;;5010512;28;20233;-55
2022/05/29 04:37:18;;;;;;;3.17;2.50;;;13.00;94.10;;;;;;5011263;28;20183;-55
2022/05/29 04:39:44;;;;;;;2.50;2.30;;;13.00;94.50;;;;;;5010063;28;20222;-56
2022/05/29 04:42:10;;;;;;;3.63;2.70;;;13.20;94.20;;;;;;5006652;28;20187;-55
2022/05/29 04:44:36;;;;;;;3.70;2.42;;;13.10;94.40;;;;;;5005766;28;20206;-55
2022/05/29 04:47:02;;;;;;;2.90;2.20;;;13.10;93.80;;;;;;5009723;28;20648;-56
2022/05/29 04:49:28;;;;;;;3.45;2.42;;;13.00;94.20;;;;;;5026827;28;20215;-55
2022/05/29 04:51:53;;;;;;;4.37;2.13;;;13.10;93.80;;;;;;5010109;28;20200;-55
2022/05/29 04:54:19;;;;;;;2.50;2.30;;;13.00;93.50;;;;;;5009538;28;20814;-56
2022/05/29 04:56:49;;;;;;;3.50;3.20;;;13.10;93.70;;;;;;5009155;28;20241;-56
2022/05/29 04:59:15;;;;;;;3.25;2.92;;;12.80;95.40;;;;;;5010091;28;20260;-54
2022/05/29 05:01:40;;;;;;;3.33;3.03;;;12.60;97.40;;;;;;5008765;28;20187;-53
2022/05/29 05:04:06;;;;;;;3.97;3.03;;;12.60;98.70;;;;;;5011094;28;20549;-53
2022/05/29 05:06:32;;;;;;;3.90;3.47;;;12.30;99.90;;;;;;5011305;28;20253;-54
2022/05/29 05:08:57;;;;;;;4.07;3.60;;;12.10;99.90;;;;;;5007769;28;20472;-56
2022/05/29 05:11:23;;;;;;;3.30;3.00;;;12.10;99.90;;;;;;5007172;28;20189;-54
2022/05/29 05:13:49;;;;;;;3.50;3.20;;;12.10;99.90;;;;;;5010863;28;20197;-55
2022/05/29 05:16:14;;;;;;;3.87;3.57;;;12.10;99.90;;;;;;5009410;28;20189;-54
2022/05/29 05:18:40;;;;;;;4.00;3.30;;;12.00;99.90;;;;;;5011288;28;20661;-54
2022/05/29 05:21:06;;;;;;;3.93;3.40;;;12.00;99.90;;;;;;5009822;28;20653;-55
2022/05/29 05:23:32;;;;;;;3.38;3.05;;;11.90;99.90;;;;;;5010467;28;20546;-54
2022/05/29 05:25:58;;;;;;;4.15;3.70;;;12.10;99.90;;;;;;5008699;28;20194;-54
2022/05/29 05:28:24;;;;;;;7.00;3.50;;;12.10;99.90;;;;;;5008366;28;20248;-54
2022/05/29 05:30:50;;;;;;;3.77;3.23;;;11.90;99.90;;;;;;5008188;28;20221;-54
2022/05/29 05:33:15;;;;;;;3.27;2.97;;;11.90;99.90;;;;;;5011432;28;20400;-54
2022/05/29 05:35:41;;;;;;;5.30;3.40;;;11.90;99.90;;;;;;5009043;28;20193;-54
2022/05/29 05:38:07;;;;;;;3.77;3.23;;;11.90;99.90;;;;;;5009269;28;20696;-55
2022/05/29 05:40:32;;;;;;;3.75;3.20;;;11.70;99.90;;;;;;5006299;28;20264;-55
2022/05/29 05:42:58;;;;;;;5.93;3.30;;;12.10;99.90;;;;;;5014334;28;20205;-55
2022/05/29 05:45:23;;;;;;;5.30;3.33;;;12.20;99.90;;;;;;5008696;28;20193;-55
2022/05/29 05:47:49;;;;;;;3.80;3.50;;;12.10;99.90;;;;;;5009795;28;20201;-55
2022/05/29 05:50:15;;;;;;;3.47;3.10;;;11.90;99.90;;;;;;5009395;28;20208;-55
2022/05/29 05:52:41;;;;;;;4.15;3.70;;;12.10;99.90;;;;;;5009888;28;20639;-55
2022/05/29 05:55:10;;;;;;;3.10;2.90;;;12.10;99.90;;;;;;5008982;28;20218;-55
2022/05/29 05:57:36;;;;;;;3.88;3.47;;;12.30;99.90;;;;;;5007508;28;20554;-55
2022/05/29 06:00:05;;;;;;;3.85;3.55;;;12.50;99.90;;;;;;5009549;28;20187;-55
2022/05/29 06:02:31;;;;;;;3.00;2.80;;;12.30;99.90;;;;;;5008506;28;20214;-55
2022/05/29 06:04:57;;;;;;;3.00;2.77;;;12.80;99.40;;;;;;5009637;28;20656;-55
2022/05/29 06:07:22;;;;;;;4.10;2.80;;;13.30;98.10;;;;;;5008964;28;20191;-54
2022/05/29 06:09:48;;;;;;;4.10;3.20;;;13.50;97.10;;;;;;5007525;28;20218;-54
2022/05/29 06:12:13;;;;;;;4.17;3.00;;;13.60;97.30;;;;;;5007071;28;20190;-54
2022/05/29 06:14:39;;;;;;;2.67;2.47;;;13.60;96.80;;;;;;5000354;28;20179;-55
2022/05/29 06:17:05;;;;;;;3.10;2.80;;;13.90;95.80;;;;;;5007659;28;20183;-55
2022/05/29 06:19:31;;;;;;;7.68;2.60;;;14.30;95.40;;;;;;5006705;28;20229;-55
2022/05/29 06:21:57;;;;;;;2.90;2.60;;;14.70;95.00;;;;;;5009882;28;20226;-54
2022/05/29 06:24:23;;;;;;;3.00;2.60;;;14.70;94.20;;;;;;5009668;28;20703;-53
2022/05/29 06:26:48;;;;;;;2.53;2.33;;;14.70;93.60;;;;;;5008991;28;20197;-54
2022/05/29 06:29:14;;;;;;;4.20;2.60;;;14.50;93.40;;;;;;5001300;28;20214;-59
2022/05/29 06:31:40;;;;;;;2.80;2.60;;;14.10;93.50;;;;;;5004585;28;20229;-58
2022/05/29 06:34:05;;;;;;;3.73;2.70;;;14.20;94.20;;;;;;5010029;28;20183;-58
2022/05/29 06:36:31;;;;;;;2.97;2.63;;;14.70;94.10;;;;;;5006762;28;20191;-59
2022/05/29 06:38:58;;;;;;;4.07;2.10;;;14.70;93.80;;;;;;5007930;28;20610;-62
2022/05/29 06:41:25;;;;;;;2.70;2.50;;;14.80;93.20;;;;;;5013473;28;20632;-62
2022/05/29 06:43:52;;;;;;;2.78;2.38;;;15.00;92.50;;;;;;5006945;28;20190;-61
2022/05/29 06:46:19;;;;;;;2.60;2.25;;;15.10;91.60;;;;;;5008087;28;20581;-59
2022/05/29 06:48:45;;;;;;;2.40;2.10;;;15.00;91.90;;;;;;5008965;28;20295;-63
2022/05/29 06:51:21;;;;;;;4.20;3.10;;;14.70;92.00;;;;;;5008115;28;20187;-63
2022/05/29 06:53:52;;;;;;;2.65;2.05;;;14.80;92.30;;;;;;5009972;28;20179;-61
2022/05/29 06:56:19;;;;;;;4.43;2.70;;;15.00;91.40;;;;;;5007564;28;20213;-61
2022/05/29 06:58:45;;;;;;;2.70;2.50;;;15.00;92.00;;;;;;5008622;28;20677;-57
2022/05/29 07:07:01;;;;;;;2.45;2.25;;;16.90;88.00;;;;;;5006209;28;20194;-56
2022/05/29 07:09:29;;;;;;;3.88;2.25;;;17.00;84.00;;;;;;5003962;28;20206;-58
2022/05/29 07:12:00;;;;;;;4.07;1.95;;;17.80;84.30;;;;;;5007457;28;20191;-58
2022/05/29 07:14:26;;;;;;;2.95;2.00;;;18.60;79.30;;;;;;5012862;28;20527;-58
2022/05/29 07:16:51;;;;;;;2.33;2.07;;;19.90;74.90;;;;;;5010232;28;20194;-58
2022/05/29 07:19:22;;;;;;;2.07;1.60;;;19.50;71.20;;;;;;5013224;28;20207;-58
2022/05/29 07:21:48;;;;;;;3.28;2.10;;;19.30;73.10;;;;;;5007125;28;20179;-64
2022/05/29 07:24:13;;;;;;;3.73;2.00;;;18.80;74.20;;;;;;5006793;28;20184;-72
2022/05/29 07:26:39;;;;;;;4.23;1.83;;;18.80;74.60;;;;;;5010025;28;20188;-72
2022/05/29 07:29:05;;;;;;;2.37;2.00;;;18.60;73.70;;;;;;5024882;28;20442;-58
2022/05/29 07:31:30;;;;;;;1.97;1.83;;;18.10;73.20;;;;;;5010861;28;20449;-57
2022/05/29 07:33:56;;;;;;;2.13;1.87;;;18.20;74.20;;;;;;5017837;28;20202;-57
2022/05/29 07:36:24;;;;;;;2.83;2.00;;;18.60;73.70;;;;;;5011357;28;20183;-57
2022/05/29 07:38:50;;;;;;;2.85;2.45;;;18.60;72.60;;;;;;5007259;28;21159;-58
2022/05/29 07:44:00;;;;;;;1.80;1.70;;;17.60;75.20;;;;;;5010432;28;20213;-58
2022/05/29 07:46:25;;;;;;;2.83;1.77;;;17.30;77.40;;;;;;5011438;28;20180;-58
2022/05/29 07:48:51;;;;;;;4.07;2.53;;;16.60;76.40;;;;;;5007405;28;20203;-56
2022/05/29 07:51:18;;;;;;;2.92;2.30;;;16.40;78.20;;;;;;5024003;28;20183;-57
2022/05/29 07:53:44;;;;;;;5.57;2.50;;;16.40;80.00;;;;;;5007460;28;20179;-58
2022/05/29 07:56:16;;;;;;;3.40;1.90;;;16.40;79.80;;;;;;5010971;28;20253;-56
2022/05/29 07:58:43;;;;;;;4.03;2.50;;;16.20;79.60;;;;;;5009654;28;20210;-59
2022/05/29 08:01:09;;;;;;;3.10;2.40;;;16.70;79.40;;;;;;5011669;28;20191;-59
2022/05/29 08:03:35;;;;;;;5.00;2.95;;;17.20;79.30;;;;;;5012204;28;20186;-57
2022/05/29 08:06:01;;;;;;;3.00;1.77;;;18.10;75.70;;;;;;5010627;28;20176;-56
2022/05/29 08:08:29;;;;;;;2.30;1.80;;;18.80;72.90;;;;;;5008365;28;20211;-56
2022/05/29 08:10:56;;;;;;;3.85;2.00;;;18.70;69.50;;;;;;5009611;28;20297;-56
2022/05/29 08:13:21;;;;;;;4.07;1.83;;;18.00;72.20;;;;;;5011103;28;20226;-56
2022/05/29 08:15:47;;;;;;;3.20;2.10;;;18.00;75.30;;;;;;5011072;28;20187;-58
2022/05/29 08:18:12;;;;;;;3.60;2.60;;;17.40;76.30;;;;;;5010758;28;20241;-56
2022/05/29 08:20:38;;;;;;;2.63;2.13;;;17.20;77.80;;;;;;5009988;28;20190;-57
2022/05/29 08:23:05;;;;;;;3.17;1.90;;;17.10;78.40;;;;;;5009951;28;20182;-56
2022/05/29 08:30:59;;;;;;;5.15;2.22;;;18.70;74.60;;;;;;5008742;28;20245;-56
2022/05/29 08:33:27;;;;;;;2.70;2.07;;;19.30;72.60;;;;;;5010608;28;20621;-57
2022/05/29 08:35:59;;;;;;;4.72;2.72;;;19.30;71.80;;;;;;5011198;28;20187;-58
2022/05/29 08:38:24;;;;;;;4.63;2.63;;;19.60;70.70;;;;;;5010312;28;20213;-56
2022/05/29 08:41:02;;;;;;;5.30;2.33;;;19.70;71.10;;;;;;5009887;28;20191;-57
2022/05/29 08:43:37;;;;;;;3.43;2.20;;;20.60;69.40;;;;;;5012185;28;20437;-57
2022/05/29 08:46:08;;;;;;;3.65;2.50;;;21.30;66.50;;;;;;5003008;28;20441;-55
2022/05/29 08:48:35;;;;;;;6.32;2.17;;;21.70;64.80;;;;;;5006586;28;20203;-57
2022/05/29 08:51:35;;;;;;;4.32;2.90;;;20.90;65.40;;;;;;5010605;28;20217;-57
2022/05/29 08:54:23;;;;;;;3.30;2.38;;;20.40;65.40;;;;;;5001950;28;20282;-57
2022/05/29 08:57:07;;;;;;;4.47;2.10;;;19.70;67.10;;;;;;5010561;28;20206;-57
2022/05/29 08:59:46;;;;;;;3.75;2.67;;;18.80;70.90;;;;;;5010335;28;20581;-58
2022/05/29 09:02:18;;;;;;;4.15;2.33;;;18.00;72.90;;;;;;5007466;28;20214;-56
2022/05/29 09:04:48;;;;;;;5.93;2.50;;;17.50;75.80;;;;;;5010852;28;20183;-58
2022/05/29 09:07:17;;;;;;;5.45;2.67;;;17.10;78.10;;;;;;5008596;28;20186;-57
2022/05/29 09:10:01;;;;;;;2.42;2.20;;;16.50;79.10;;;;;;5010539;28;20281;-56
2022/05/29 09:13:03;;;;;;;3.53;2.45;;;16.40;81.00;;;;;;5010023;28;20270;-56
2022/05/29 09:15:44;;;;;;;3.60;2.10;;;16.20;83.20;;;;;;5023257;28;20553;-57
2022/05/29 09:18:29;;;;;;;5.80;2.40;;;16.20;84.60;;;;;;5011884;28;20214;-57
2022/05/29 09:21:03;;;;;;;3.70;2.10;;;15.60;84.80;;;;;;5001818;28;20194;-56
2022/05/29 09:23:39;;;;;;;4.03;2.42;;;15.60;86.40;;;;;;5005315;28;22091;-57
2022/05/29 09:26:06;;;;;;;2.38;2.17;;;15.60;88.90;;;;;;5008587;28;20205;-57
2022/05/29 09:28:38;;;;;;;3.63;2.58;;;15.60;89.60;;;;;;5010052;28;20211;-56
2022/05/29 09:31:18;;;;;;;2.95;2.38;;;15.50;89.80;;;;;;5006840;28;20211;-57
2022/05/29 09:33:44;;;;;;;4.50;2.60;;;15.30;90.20;;;;;;5007066;28;20203;-57
2022/05/29 09:36:28;;;;;;;6.70;2.70;;;15.30;90.60;;;;;;5010115;28;20262;-57
2022/05/29 09:39:05;;;;;;;3.88;2.78;;;15.50;91.30;;;;;;5010516;28;20688;-57
2022/05/29 09:41:43;;;;;;;4.53;2.78;;;15.30;90.60;;;;;;5009768;28;20186;-58
2022/05/29 09:44:15;;;;;;;6.28;2.40;;;15.00;90.60;;;;;;5007230;28;20194;-58
2022/05/29 09:46:43;;;;;;;3.95;2.60;;;15.10;89.10;;;;;;5008779;28;20191;-59
2022/05/29 09:49:41;;;;;;;4.10;2.35;;;15.40;88.10;;;;;;5008449;28;20203;-58
2022/05/29 09:52:15;;;;;;;3.80;2.40;;;15.60;87.40;;;;;;5008002;28;20666;-58
2022/05/29 09:55:06;;;;;;;4.82;2.30;;;17.00;85.10;;;;;;5008580;28;20195;-57
2022/05/29 09:57:49;;;;;;;3.13;2.20;;;18.50;78.90;;;;;;5009153;28;20338;-56
2022/05/29 10:00:27;;;;;;;4.07;2.55;;;19.40;75.40;;;;;;5005670;28;20186;-58
2022/05/29 10:02:54;;;;;;;5.63;3.42;;;20.70;69.80;;;;;;5008789;28;20187;-58
2022/05/29 10:05:35;;;;;;;4.28;2.40;;;20.20;69.90;;;;;;5009194;28;20191;-58
2022/05/29 10:08:26;;;;;;;3.42;2.58;;;19.70;70.30;;;;;;5008577;28;20293;-57
2022/05/29 10:10:51;;;;;;;3.38;2.28;;;19.30;72.90;;;;;;5004644;28;20743;-58
2022/05/29 10:13:39;;;;;;;3.10;2.10;;;19.10;73.60;;;;;;5002720;28;20191;-57
2022/05/29 10:16:05;;;;;;;7.35;3.08;;;18.50;74.40;;;;;;4993737;28;20281;-57
2022/05/29 10:18:32;;;;;;;1.95;1.75;;;17.90;74.80;;;;;;5006504;28;20207;-57
2022/05/29 10:21:27;;;;;;;4.85;2.35;;;17.50;75.30;;;;;;5008085;28;20267;-58
2022/05/29 10:24:18;;;;;;;4.60;2.67;;;17.20;76.80;;;;;;5008190;28;20225;-55
2022/05/29 10:26:52;;;;;;;4.32;2.15;;;16.60;76.90;;;;;;5009568;28;20556;-58
2022/05/29 10:29:38;;;;;;;3.55;2.22;;;16.60;78.40;;;;;;5010103;28;20300;-57
2022/05/29 10:32:08;;;;;;;4.55;2.17;;;16.10;77.30;;;;;;5007773;28;20551;-57
2022/05/29 10:34:39;;;;;;;3.55;2.20;;;15.90;78.00;;;;;;5006234;28;20292;-58
2022/05/29 10:37:26;;;;;;;6.60;2.15;;;15.80;78.70;;;;;;5005988;28;20662;-56
2022/05/29 10:39:52;;;;;;;6.15;2.60;;;15.70;79.30;;;;;;5008731;28;20702;-55
2022/05/29 10:42:39;;;;;;;4.50;2.27;;;15.50;82.70;;;;;;5008871;28;20191;-57
2022/05/29 10:45:06;;;;;;;3.22;2.20;;;15.50;86.20;;;;;;5005871;28;20978;-56
2022/05/29 10:47:41;;;;;;;4.70;2.50;;;15.10;87.80;;;;;;5011857;28;20198;-57
2022/05/29 10:50:19;;;;;;;6.65;2.45;;;15.00;88.60;;;;;;5012677;28;20649;-58
2022/05/29 10:52:56;;;;;;;3.08;2.35;;;14.60;88.90;;;;;;5012191;28;20179;-57
2022/05/29 10:55:37;;;;;;;4.57;2.10;;;14.60;90.10;;;;;;5011885;28;20186;-58
2022/05/29 10:58:21;;;;;;;3.80;2.50;;;14.70;90.30;;;;;;5011484;28;20303;-57
2022/05/29 11:00:50;;;;;;;2.58;2.03;;;14.40;90.00;;;;;;5007795;28;20221;-57
2022/05/29 11:03:45;;;;;;;2.08;1.88;;;14.60;90.20;;;;;;5012824;28;20217;-58
2022/05/29 11:06:44;;;;;;;5.50;2.22;;;14.70;90.20;;;;;;5011592;28;20274;-57
2022/05/29 11:09:27;;;;;;;3.78;2.17;;;14.90;88.80;;;;;;5007961;28;20234;-56
2022/05/29 11:12:02;;;;;;;2.72;1.80;;;15.20;87.80;;;;;;5011504;28;20191;-58
2022/05/29 11:14:53;;;;;;;2.58;1.75;;;15.30;85.80;;;;;;5007491;28;20200;-58
2022/05/29 11:17:56;;;;;;;2.28;1.70;;;16.20;85.10;;;;;;5009705;28;20668;-57
2022/05/29 11:20:57;;;;;;;2.55;1.45;;;17.50;78.00;;;;;;5006880;28;20174;-56
2022/05/29 11:23:46;;;;;;;1.70;1.60;;;17.70;75.20;;;;;;5010431;28;21050;-58
2022/05/29 11:26:20;;;;;;;2.80;1.65;;;17.50;75.60;;;;;;5006644;28;20640;-56
2022/05/29 11:29:01;;;;;;;2.03;1.83;;;18.50;73.10;;;;;;5005730;28;20209;-59
2022/05/29 11:31:36;;;;;;;3.17;1.50;;;18.10;69.20;;;;;;5008074;28;20649;-56
2022/05/29 11:34:20;;;;;;;1.80;1.50;;;17.90;69.80;;;;;;5009731;28;20256;-55
2022/05/29 11:37:12;;;;;;;2.63;1.25;;;17.30;68.90;;;;;;5014790;28;20241;-57
2022/05/29 11:39:47;;;;;;;2.83;1.80;;;17.20;69.10;;;;;;5011505;28;20202;-58
2022/05/29 11:42:27;;;;;;;3.45;2.00;;;17.70;69.40;;;;;;5010246;28;20201;-58
2022/05/29 11:45:16;;;;;;;2.53;1.55;;;17.90;68.70;;;;;;5012491;28;20661;-58
2022/05/29 11:51:08;;;;;;;1.65;1.40;;;18.60;65.30;;;;;;5010759;28;20781;-58
2022/05/29 11:53:39;;;;;;;2.65;1.40;;;18.50;65.40;;;;;;5012018;28;20190;-58
2022/05/29 11:56:11;;;;;;;2.72;2.17;;;18.60;65.60;;;;;;5009732;28;20191;-57
2022/05/29 11:58:45;;;;;;;7.53;1.85;;;18.30;65.40;;;;;;5010282;28;20805;-57
2022/05/29 12:01:23;;;;;;;1.85;1.70;;;18.00;67.90;;;;;;5010128;28;20183;-57
2022/05/29 12:03:54;;;;;;;2.67;1.42;;;17.60;70.60;;;;;;5010343;28;20186;-57
2022/05/29 12:06:24;;;;;;;2.72;1.48;;;17.50;69.30;;;;;;5012352;28;20265;-58
2022/05/29 12:08:56;;;;;;;2.55;1.30;;;17.40;67.40;;;;;;5010170;28;20211;-57
2022/05/29 12:11:21;;;;;;;3.65;1.70;;;17.00;68.90;;;;;;5010527;28;20179;-57
2022/05/29 12:13:56;;;;;;;3.00;2.17;;;16.90;69.20;;;;;;5010624;28;20730;-58
2022/05/29 12:16:28;;;;;;;1.58;1.38;;;16.60;70.50;;;;;;5002301;28;20541;-57
2022/05/29 12:18:56;;;;;;;6.63;2.45;;;16.80;69.80;;;;;;5011643;28;20199;-57
2022/05/29 12:21:41;;;;;;;2.53;1.75;;;16.80;70.10;;;;;;5005585;28;20179;-58
2022/05/29 12:24:11;;;;;;;1.90;1.70;;;16.90;72.40;;;;;;5006507;28;20229;-57
2022/05/29 12:27:02;;;;;;;2.20;2.00;;;16.80;74.70;;;;;;5009499;28;20183;-57
2022/05/29 12:29:36;;;;;;;4.80;2.58;;;16.60;78.40;;;;;;5007698;28;20231;-57
2022/05/29 12:32:09;;;;;;;2.03;1.88;;;16.40;78.90;;;;;;5011114;28;20545;-58
2022/05/29 12:34:49;;;;;;;2.75;1.75;;;16.10;77.00;;;;;;5011614;28;20194;-57
2022/05/29 12:37:15;;;;;;;3.38;2.38;;;15.90;79.10;;;;;;5008324;28;20179;-58
2022/05/29 12:39:59;;;;;;;3.50;1.77;;;15.60;79.00;;;;;;5010113;28;20716;-57
2022/05/29 12:42:41;;;;;;;2.63;2.42;;;15.70;79.70;;;;;;5011423;28;20198;-57
2022/05/29 12:45:18;;;;;;;2.15;1.75;;;15.80;80.20;;;;;;5010010;28;20186;-58
2022/05/29 12:47:58;;;;;;;6.50;2.30;;;15.80;80.50;;;;;;5006881;28;20189;-58
2022/05/29 12:50:56;;;;;;;2.60;1.90;;;15.90;79.70;;;;;;5009802;28;20676;-56
2022/05/29 12:53:48;;;;;;;3.70;1.60;;;15.70;79.80;;;;;;4994509;28;20231;-56
2022/05/29 12:56:35;;;;;;;3.45;2.15;;;15.60;80.00;;;;;;5007653;28;20213;-59
2022/05/29 12:59:20;;;;;;;3.33;1.77;;;15.80;80.80;;;;;;5009118;28;20202;-57
2022/05/29 13:02:16;;;;;;;3.85;1.83;;;15.70;78.50;;;;;;5009774;28;20590;-56
2022/05/29 13:05:00;;;;;;;3.30;1.50;;;15.70;77.40;;;;;;5006177;28;20190;-55
2022/05/29 13:07:29;;;;;;;1.95;1.70;;;15.50;77.50;;;;;;5010036;28;20191;-58
2022/05/29 13:10:27;;;;;;;2.60;1.85;;;15.30;77.90;;;;;;5009048;28;20272;-57
2022/05/29 13:13:12;;;;;;;3.30;1.88;;;15.70;76.90;;;;;;5009438;28;20179;-58
2022/05/29 13:15:39;;;;;;;2.63;1.70;;;15.60;77.60;;;;;;5008631;28;20248;-58
2022/05/29 13:18:19;;;;;;;3.38;2.10;;;15.40;78.40;;;;;;5010188;28;20203;-56
2022/05/29 13:21:09;;;;;;;3.60;1.40;;;15.30;77.40;;;;;;5009858;28;20190;-58
2022/05/29 13:23:38;;;;;;;2.50;2.05;;;15.60;76.50;;;;;;5007181;28;20214;-57
2022/05/29 13:26:04;;;;;;;2.55;1.88;;;15.70;76.50;;;;;;5004085;28;20183;-56
2022/05/29 13:28:41;;;;;;;2.23;1.60;;;15.50;75.70;;;;;;5007579;28;20324;-58
2022/05/29 13:31:13;;;;;;;2.13;1.90;;;15.50;76.10;;;;;;5004807;28;20225;-59
2022/05/29 13:33:46;;;;;;;2.10;1.90;;;15.50;75.30;;;;;;5009241;28;20197;-57
2022/05/29 13:36:42;;;;;;;2.97;1.90;;;15.30;78.30;;;;;;5010002;28;20205;-59
2022/05/29 13:39:23;;;;;;;2.85;1.60;;;15.30;77.50;;;;;;5010603;28;20317;-58
2022/05/29 13:41:51;;;;;;;1.40;1.30;;;15.10;78.10;;;;;;5008054;28;20201;-58
2022/05/29 13:44:30;;;;;;;2.20;1.30;;;15.10;78.60;;;;;;5007202;28;20182;-58